Rm Thomas — FNMP — position and weather

sailwx.info

Track history (hours):
 
Tides and Currents Weather Stations Pressure Air Temp Water Temp Dewpoint Dewpoint Depression Visibility Wind Speed Wind Dir Waves Ship Positions

Rm Thomas

Last reported at 2017-Jan-08 03:23 UTC. Time now 2017-Jan-23 10:37 UTC.
Position N 44°53' W 000°32'.
Warning: this ship's position is 15 days out of date.

Length 25 m; draft 4 m.

Type: Tug. MMSI: 228278700.

Date/timePositionNaut miles runAvg speedWind from/ knotsBaromVisibWave heightAir tempDewpointWater temp
2017-Jan-08 03:23N 44°53' W 000°32'8 0.5
2017-Jan-07 12:12N 45°01' W 000°35'1 1.6
2017-Jan-07 11:27N 45°00' W 000°34'1 1.3
2017-Jan-07 10:32N 45°01' W 000°35'1 1.3
2017-Jan-07 09:33N 45°00' W 000°34'6 4.6
2017-Jan-07 08:10N 44°54' W 000°32'  
2017-Jan-04 22:33N 44°55' W 000°33'1110.9
2017-Jan-04 21:33N 45°05' W 000°39'1 0.2
2017-Jan-04 18:33N 45°04' W 000°39'8 8.4
2017-Jan-04 17:33N 44°57' W 000°33'4 0.3
2017-Jan-04 04:32N 44°53' W 000°32'6 6.3
2017-Jan-04 03:33N 44°59' W 000°33'  
2017-Jan-01 09:18N 44°60' W 000°33'1 1.1
2017-Jan-01 08:33N 45°00' W 000°34'0 0.2
2017-Jan-01 07:25N 45°00' W 000°34'0 0.0
2016-Dec-31 15:25N 45°00' W 000°34'1 1.5
2016-Dec-31 14:33N 44°59' W 000°33'6 2.0
2016-Dec-31 11:33N 44°53' W 000°32'0 0.0
2016-Dec-31 09:21N 44°53' W 000°32'0 0.0
2016-Dec-31 08:27N 44°53' W 000°32'0 0.0
2016-Dec-31 07:32N 44°53' W 000°32'0 0.0
2016-Dec-31 06:33N 44°53' W 000°32'0 0.0
2016-Dec-31 04:33N 44°53' W 000°32'0 0.0
2016-Dec-31 03:33N 44°53' W 000°32'7 0.7
2016-Dec-30 18:14N 44°60' W 000°33'0 0.0
2016-Dec-30 17:20N 44°60' W 000°33'2 2.1
2016-Dec-30 16:31N 45°01' W 000°35'0 0.4
2016-Dec-30 15:32N 45°01' W 000°36'2 1.8
2016-Dec-30 14:33N 45°00' W 000°34'4 0.5
2016-Dec-30 07:29N 44°57' W 000°33'4 3.6
2016-Dec-30 06:27N 45°00' W 000°34'0 0.1
2016-Dec-30 05:31N 45°00' W 000°34'0 0.0
2016-Dec-30 04:33N 45°00' W 000°34'0 0.0
2016-Dec-30 03:33N 45°00' W 000°34'0 0.0
2016-Dec-30 02:30N 45°00' W 000°34'0 0.0
2016-Dec-30 01:33N 45°00' W 000°34'0 0.0
2016-Dec-30 00:33N 45°00' W 000°34'0 0.0
2016-Dec-29 23:32N 45°00' W 000°34'1 0.2
2016-Dec-29 17:06N 45°01' W 000°35'2 4.1
2016-Dec-29 16:30N 44°59' W 000°33'6 0.5
2016-Dec-29 05:21N 44°53' W 000°32'0 0.0
2016-Dec-29 04:33N 44°53' W 000°32'0 0.0
2016-Dec-29 03:33N 44°53' W 000°32'  
Track history (hours):
 
Tides and Currents Weather Stations Pressure Air Temp Water Temp Dewpoint Dewpoint Depression Visibility Wind Speed Wind Dir Waves Ship Positions

Rm Thomas

Last reported at 2017-Jan-08 03:23 UTC. Time now 2017-Jan-23 10:37 UTC.
Position N 44°53' W 000°32'.
Warning: this ship's position is 15 days out of date.

Length 25 m; draft 4 m.

Type: Tug. MMSI: 228278700.

Date/timePositionNaut miles runAvg speedWind from/ knotsBaromVisibWave heightAir tempDewpointWater temp
2017-Jan-08 03:23N 44°53' W 000°32'8 0.5
2017-Jan-07 12:12N 45°01' W 000°35'1 1.6
2017-Jan-07 11:27N 45°00' W 000°34'1 1.3
2017-Jan-07 10:32N 45°01' W 000°35'1 1.3
2017-Jan-07 09:33N 45°00' W 000°34'6 4.6
2017-Jan-07 08:10N 44°54' W 000°32'  
2017-Jan-04 22:33N 44°55' W 000°33'1110.9
2017-Jan-04 21:33N 45°05' W 000°39'1 0.2
2017-Jan-04 18:33N 45°04' W 000°39'8 8.4
2017-Jan-04 17:33N 44°57' W 000°33'4 0.3
2017-Jan-04 04:32N 44°53' W 000°32'6 6.3
2017-Jan-04 03:33N 44°59' W 000°33'  
2017-Jan-01 09:18N 44°60' W 000°33'1 1.1
2017-Jan-01 08:33N 45°00' W 000°34'0 0.2
2017-Jan-01 07:25N 45°00' W 000°34'0 0.0
2016-Dec-31 15:25N 45°00' W 000°34'1 1.5
2016-Dec-31 14:33N 44°59' W 000°33'6 2.0
2016-Dec-31 11:33N 44°53' W 000°32'0 0.0
2016-Dec-31 09:21N 44°53' W 000°32'0 0.0
2016-Dec-31 08:27N 44°53' W 000°32'0 0.0
2016-Dec-31 07:32N 44°53' W 000°32'0 0.0
2016-Dec-31 06:33N 44°53' W 000°32'0 0.0
2016-Dec-31 04:33N 44°53' W 000°32'0 0.0
2016-Dec-31 03:33N 44°53' W 000°32'7 0.7
2016-Dec-30 18:14N 44°60' W 000°33'0 0.0
2016-Dec-30 17:20N 44°60' W 000°33'2 2.1
2016-Dec-30 16:31N 45°01' W 000°35'0 0.4
2016-Dec-30 15:32N 45°01' W 000°36'2 1.8
2016-Dec-30 14:33N 45°00' W 000°34'4 0.5
2016-Dec-30 07:29N 44°57' W 000°33'4 3.6
2016-Dec-30 06:27N 45°00' W 000°34'0 0.1
2016-Dec-30 05:31N 45°00' W 000°34'0 0.0
2016-Dec-30 04:33N 45°00' W 000°34'0 0.0
2016-Dec-30 03:33N 45°00' W 000°34'0 0.0
2016-Dec-30 02:30N 45°00' W 000°34'0 0.0
2016-Dec-30 01:33N 45°00' W 000°34'0 0.0
2016-Dec-30 00:33N 45°00' W 000°34'0 0.0
2016-Dec-29 23:32N 45°00' W 000°34'1 0.2
2016-Dec-29 17:06N 45°01' W 000°35'2 4.1
2016-Dec-29 16:30N 44°59' W 000°33'6 0.5
2016-Dec-29 05:21N 44°53' W 000°32'0 0.0
2016-Dec-29 04:33N 44°53' W 000°32'0 0.0
2016-Dec-29 03:33N 44°53' W 000°32'  

Dump ship's entire track history